createdAt,value
2023-01-17T00:02:16.796Z,3.40
2023-01-17T00:05:02.317Z,3.00
2023-01-17T00:07:47.763Z,2.78
2023-01-17T00:10:20.621Z,3.05
2023-01-17T00:12:50.067Z,2.85
2023-01-17T00:15:19.648Z,2.67
2023-01-17T00:20:39.263Z,2.63
2023-01-17T00:23:33.835Z,3.10
2023-01-17T00:26:03.383Z,2.50
2023-01-17T00:30:58.153Z,2.40
2023-01-17T00:33:25.493Z,2.60
2023-01-17T00:35:54.093Z,2.50
2023-01-17T00:38:26.279Z,2.50
2023-01-17T00:40:53.391Z,2.25
2023-01-17T00:43:41.344Z,2.50
2023-01-17T00:46:27.269Z,2.25
2023-01-17T00:49:12.600Z,2.80
2023-01-17T00:51:57.987Z,2.40
2023-01-17T00:54:43.374Z,2.22
2023-01-17T00:57:28.839Z,2.10
2023-01-17T01:00:14.220Z,2.30
2023-01-17T01:02:59.379Z,2.40
2023-01-17T01:05:44.742Z,2.00
2023-01-17T01:08:36.176Z,2.20
2023-01-17T01:11:25.212Z,1.70
2023-01-17T01:14:10.625Z,1.50
2023-01-17T01:16:56.112Z,1.40
2023-01-17T01:19:41.366Z,1.23
2023-01-17T01:22:27.042Z,1.08
2023-01-17T01:25:12.308Z,1.30
2023-01-17T01:27:57.715Z,1.02
2023-01-17T01:30:43.074Z,1.10
2023-01-17T01:33:21.370Z,1.30
2023-01-17T01:35:53.993Z,1.20
2023-01-17T01:38:23.722Z,1.38
2023-01-17T01:40:55.774Z,1.30
2023-01-17T01:43:45.593Z,1.30
2023-01-17T01:46:25.391Z,1.33
2023-01-17T01:49:15.613Z,1.27
2023-01-17T01:51:53.638Z,1.17
2023-01-17T01:54:35.348Z,1.33
2023-01-17T01:57:05.032Z,1.23
2023-01-17T01:59:33.975Z,1.45
2023-01-17T02:02:01.437Z,1.60
2023-01-17T02:04:29.118Z,1.50
2023-01-17T02:07:03.804Z,1.58
2023-01-17T02:09:30.623Z,1.50
2023-01-17T02:11:57.997Z,1.70
2023-01-17T02:14:24.973Z,1.83
2023-01-17T02:17:11.907Z,1.70
2023-01-17T02:20:20.482Z,1.70
2023-01-17T02:23:38.431Z,1.70
2023-01-17T02:26:43.419Z,2.05
2023-01-17T02:29:47.579Z,1.52
2023-01-17T02:32:37.713Z,1.52
2023-01-17T02:35:32.952Z,1.92
2023-01-17T02:38:16.263Z,2.15
2023-01-17T02:40:55.020Z,1.70
2023-01-17T02:43:24.728Z,1.40
2023-01-17T02:45:51.728Z,1.60
2023-01-17T02:48:22.953Z,1.30
2023-01-17T02:51:19.329Z,1.50
2023-01-17T02:54:08.514Z,2.08
2023-01-17T02:56:54.320Z,1.63
2023-01-17T02:59:34.288Z,1.75
2023-01-17T03:02:30.640Z,1.77
2023-01-17T03:05:33.197Z,1.80
2023-01-17T03:08:01.859Z,1.83
2023-01-17T03:10:32.051Z,1.77
2023-01-17T03:13:01.028Z,1.70
2023-01-17T03:15:27.973Z,1.60
2023-01-17T03:17:59.716Z,1.88
2023-01-17T03:20:27.190Z,1.73
2023-01-17T03:22:54.010Z,1.42
2023-01-17T03:25:20.867Z,2.10
2023-01-17T03:27:47.737Z,1.65
2023-01-17T03:30:16.048Z,1.83
2023-01-17T03:32:42.880Z,1.60
2023-01-17T03:35:09.865Z,2.08
2023-01-17T03:37:36.734Z,1.80
2023-01-17T03:40:04.256Z,1.90
2023-01-17T03:42:31.064Z,1.90
2023-01-17T03:44:57.897Z,1.80
2023-01-17T03:47:24.911Z,1.77
2023-01-17T03:49:51.933Z,1.98
2023-01-17T03:52:18.781Z,1.67
2023-01-17T03:54:48.439Z,1.83
2023-01-17T03:57:15.716Z,1.65
2023-01-17T03:59:42.669Z,1.60
2023-01-17T04:02:09.661Z,1.85
2023-01-17T04:04:36.571Z,1.67
2023-01-17T04:07:03.486Z,2.38
2023-01-17T04:09:34.018Z,1.90
2023-01-17T04:12:02.426Z,1.70
2023-01-17T04:14:29.222Z,1.70
2023-01-17T04:16:56.435Z,1.77
2023-01-17T04:19:23.578Z,1.98
2023-01-17T04:21:50.429Z,2.00
2023-01-17T04:24:18.086Z,1.83
2023-01-17T04:26:45.147Z,2.35
2023-01-17T04:29:12.114Z,1.73
2023-01-17T04:31:38.954Z,1.95
2023-01-17T04:34:05.794Z,1.90
2023-01-17T04:36:32.632Z,1.85
2023-01-17T04:38:59.594Z,1.98
2023-01-17T04:41:26.454Z,1.80
2023-01-17T04:43:53.331Z,1.67
2023-01-17T04:46:20.202Z,1.63
2023-01-17T04:48:47.091Z,1.90
2023-01-17T04:51:14.161Z,1.90
2023-01-17T04:53:41.120Z,1.90
2023-01-17T04:56:08.009Z,1.90
2023-01-17T04:58:34.998Z,1.98
2023-01-17T05:01:07.063Z,1.88
2023-01-17T05:03:34.488Z,1.75
2023-01-17T05:06:01.861Z,2.03
2023-01-17T05:08:28.863Z,1.90
2023-01-17T05:10:55.989Z,1.92
2023-01-17T05:13:22.888Z,2.00
2023-01-17T05:15:50.486Z,2.10
2023-01-17T05:18:18.489Z,2.00
2023-01-17T05:20:45.599Z,2.05
2023-01-17T05:23:12.575Z,2.00
2023-01-17T05:25:44.199Z,2.65
2023-01-17T05:28:13.262Z,1.80
2023-01-17T05:30:41.141Z,1.90
2023-01-17T05:33:10.194Z,2.10
2023-01-17T05:35:37.252Z,2.22
2023-01-17T05:38:04.477Z,2.28
2023-01-17T05:40:32.973Z,2.05
2023-01-17T05:43:01.280Z,2.15
2023-01-17T05:45:29.524Z,2.47
2023-01-17T05:47:57.302Z,3.15
2023-01-17T05:50:30.254Z,2.00
2023-01-17T05:53:00.388Z,2.28
2023-01-17T05:55:28.518Z,1.83
2023-01-17T05:57:56.177Z,2.28
2023-01-17T06:00:23.795Z,1.98
2023-01-17T06:02:53.495Z,2.67
2023-01-17T06:05:21.358Z,2.70
2023-01-17T06:07:48.735Z,1.75
2023-01-17T06:10:17.185Z,2.83
2023-01-17T06:12:45.273Z,2.15
2023-01-17T06:15:13.641Z,2.05
2023-01-17T06:17:40.654Z,2.00
2023-01-17T06:20:08.909Z,2.35
2023-01-17T06:22:36.048Z,2.33
2023-01-17T06:25:02.946Z,2.45
2023-01-17T06:27:29.809Z,2.45
2023-01-17T06:29:56.566Z,2.47
2023-01-17T06:32:23.388Z,2.25
2023-01-17T06:34:50.234Z,2.15
2023-01-17T06:37:17.077Z,2.65
2023-01-17T06:39:44.007Z,2.50
2023-01-17T06:42:10.862Z,2.30
2023-01-17T06:44:37.721Z,2.30
2023-01-17T06:47:04.597Z,2.35
2023-01-17T06:49:31.413Z,2.55
2023-01-17T06:51:58.323Z,2.75
2023-01-17T06:54:25.256Z,2.00
2023-01-17T06:56:52.139Z,2.30
2023-01-17T06:59:18.969Z,2.28
2023-01-17T07:01:45.913Z,1.85
2023-01-17T07:04:12.807Z,2.30
2023-01-17T07:06:39.794Z,2.38
2023-01-17T07:09:06.629Z,2.65
2023-01-17T07:11:33.563Z,2.38
2023-01-17T07:14:00.473Z,2.00
2023-01-17T07:16:27.372Z,2.00
2023-01-17T07:18:55.233Z,2.03
2023-01-17T07:21:22.662Z,2.17
2023-01-17T07:23:49.637Z,2.45
2023-01-17T07:26:17.401Z,2.22
2023-01-17T07:28:44.278Z,2.00
2023-01-17T07:31:11.278Z,1.98
2023-01-17T07:33:38.184Z,2.40
2023-01-17T07:36:09.347Z,2.13
2023-01-17T07:38:36.684Z,2.00
2023-01-17T07:41:04.193Z,1.98
2023-01-17T07:43:31.681Z,3.42
2023-01-17T07:46:00.812Z,2.28
2023-01-17T07:48:28.953Z,2.55
2023-01-17T07:50:57.338Z,2.28
2023-01-17T07:53:26.276Z,2.30
2023-01-17T07:55:53.803Z,2.35
2023-01-17T07:58:21.419Z,2.38
2023-01-17T08:00:48.360Z,2.50
2023-01-17T08:03:17.710Z,2.25
2023-01-17T08:05:53.931Z,2.30
2023-01-17T08:08:20.810Z,2.42
2023-01-17T08:10:47.657Z,2.30
2023-01-17T08:13:14.495Z,2.10
2023-01-17T08:15:41.396Z,3.65
2023-01-17T08:18:08.303Z,2.20
2023-01-17T08:20:35.177Z,2.55
2023-01-17T08:23:02.058Z,2.90
2023-01-17T08:25:28.952Z,2.97
2023-01-17T08:27:59.304Z,2.45
2023-01-17T08:30:27.289Z,2.97
2023-01-17T08:32:55.181Z,3.17
2023-01-17T08:35:22.150Z,3.15
2023-01-17T08:37:53.014Z,3.72
2023-01-17T08:40:20.275Z,3.05
2023-01-17T08:42:58.162Z,3.45
2023-01-17T08:45:25.630Z,3.75
2023-01-17T08:47:52.792Z,3.03
2023-01-17T08:50:20.843Z,3.17
2023-01-17T08:52:51.168Z,3.47
2023-01-17T08:55:19.515Z,3.30
2023-01-17T08:57:46.983Z,3.30
2023-01-17T09:00:14.287Z,3.83
2023-01-17T09:04:53.705Z,3.40
2023-01-17T09:07:21.039Z,3.47
2023-01-17T09:09:48.473Z,3.78
2023-01-17T09:12:15.324Z,3.60
2023-01-17T09:14:42.239Z,3.40
2023-01-17T09:17:09.156Z,3.80
2023-01-17T09:19:39.030Z,3.40
2023-01-17T09:22:06.701Z,4.03
2023-01-17T09:24:34.096Z,3.50
2023-01-17T09:27:01.195Z,4.43
2023-01-17T09:29:28.474Z,3.65
2023-01-17T09:31:55.339Z,4.38
2023-01-17T09:34:24.287Z,4.10
2023-01-17T09:36:51.319Z,4.20
2023-01-17T09:39:18.755Z,4.35
2023-01-17T09:42:19.553Z,4.45
2023-01-17T09:44:51.513Z,4.25
2023-01-17T09:47:57.912Z,4.47
2023-01-17T09:50:42.000Z,4.47
2023-01-17T09:53:22.348Z,4.47
2023-01-17T09:58:38.382Z,4.20
2023-01-17T10:01:17.764Z,4.35
2023-01-17T10:04:03.590Z,4.97
2023-01-17T10:07:25.108Z,4.18
2023-01-17T10:10:18.544Z,5.55
2023-01-17T10:13:15.045Z,5.13
2023-01-17T10:15:54.736Z,4.55
2023-01-17T10:18:48.844Z,4.50
2023-01-17T10:21:25.692Z,4.57
2023-01-17T10:24:03.740Z,4.38
2023-01-17T10:26:32.676Z,4.30
2023-01-17T10:29:12.556Z,4.55
2023-01-17T10:31:48.386Z,4.40
2023-01-17T10:34:40.685Z,3.80
2023-01-17T10:37:23.257Z,4.65
2023-01-17T10:39:52.372Z,3.70
2023-01-17T10:42:24.845Z,4.57
2023-01-17T10:45:20.871Z,5.25
2023-01-17T10:47:59.936Z,4.82
2023-01-17T10:50:29.079Z,4.32
2023-01-17T10:53:17.272Z,4.20
2023-01-17T10:55:53.627Z,4.55
2023-01-17T10:58:20.533Z,4.55
2023-01-17T11:00:57.366Z,5.00
2023-01-17T11:03:24.411Z,5.13
2023-01-17T11:06:22.274Z,4.07
2023-01-17T11:08:56.464Z,4.53
2023-01-17T11:11:32.369Z,4.78
2023-01-17T11:14:01.626Z,4.95
2023-01-17T11:16:31.714Z,4.28
2023-01-17T11:19:30.430Z,5.13
2023-01-17T11:22:01.771Z,3.70
2023-01-17T11:24:37.129Z,4.40
2023-01-17T11:27:06.246Z,3.97
2023-01-17T11:29:37.106Z,4.10
2023-01-17T11:32:32.277Z,4.10
2023-01-17T11:35:27.852Z,3.85
2023-01-17T11:38:30.186Z,4.20
2023-01-17T11:41:16.929Z,3.38
2023-01-17T11:43:57.873Z,3.30
2023-01-17T11:46:25.575Z,3.33
2023-01-17T11:48:56.145Z,3.63
2023-01-17T11:51:35.296Z,3.78
2023-01-17T11:54:38.452Z,3.22
2023-01-17T11:57:15.587Z,3.70
2023-01-17T11:59:47.745Z,3.38
2023-01-17T12:02:32.051Z,3.50
2023-01-17T12:05:05.141Z,3.80
2023-01-17T12:08:10.907Z,3.53
2023-01-17T12:11:13.781Z,3.58
2023-01-17T12:14:11.637Z,3.15
2023-01-17T12:17:18.465Z,3.00
2023-01-17T12:20:05.165Z,2.53
2023-01-17T12:23:03.255Z,3.00
2023-01-17T12:26:02.238Z,2.70
2023-01-17T12:28:50.674Z,3.08
2023-01-17T12:31:24.031Z,2.30
2023-01-17T12:34:03.592Z,3.08
2023-01-17T12:36:43.673Z,2.47
2023-01-17T12:39:14.151Z,2.40
2023-01-17T12:41:57.857Z,2.47
2023-01-17T12:44:41.765Z,2.50
2023-01-17T12:47:09.477Z,2.38
2023-01-17T12:49:46.631Z,2.30
2023-01-17T12:52:52.402Z,2.75
2023-01-17T12:55:37.708Z,2.63
2023-01-17T12:58:10.780Z,2.35
2023-01-17T13:00:39.290Z,2.92
2023-01-17T13:03:16.110Z,2.30
2023-01-17T13:05:48.821Z,2.53
2023-01-17T13:08:32.974Z,2.70
2023-01-17T13:11:07.177Z,2.60
2023-01-17T13:13:35.697Z,3.15
2023-01-17T13:16:13.246Z,2.53
2023-01-17T13:18:50.987Z,2.80
2023-01-17T13:21:33.931Z,2.63
2023-01-17T13:24:03.737Z,2.67
2023-01-17T13:26:55.525Z,2.50
2023-01-17T13:29:34.345Z,2.42
2023-01-17T13:32:20.112Z,2.47
2023-01-17T13:34:49.932Z,2.60
2023-01-17T13:37:44.969Z,2.60
2023-01-17T13:40:30.484Z,2.78
2023-01-17T13:42:59.653Z,2.40
2023-01-17T13:45:35.237Z,2.50
2023-01-17T13:48:20.053Z,2.53
2023-01-17T13:51:02.452Z,2.30
2023-01-17T13:53:39.465Z,2.90
2023-01-17T13:56:20.124Z,2.60
2023-01-17T13:58:58.218Z,3.10
2023-01-17T14:01:25.336Z,2.47
2023-01-17T14:03:52.234Z,2.53
2023-01-17T14:06:36.514Z,2.55
2023-01-17T14:09:18.379Z,2.42
2023-01-17T14:12:06.021Z,2.28
2023-01-17T14:14:41.910Z,2.67
2023-01-17T14:17:25.820Z,2.50
2023-01-17T14:19:55.854Z,2.47
2023-01-17T14:22:22.698Z,2.50
2023-01-17T14:25:00.451Z,2.25
2023-01-17T14:27:30.521Z,2.40
2023-01-17T14:29:59.081Z,2.45
2023-01-17T14:32:35.385Z,2.40
2023-01-17T14:35:03.966Z,2.10
2023-01-17T14:37:42.321Z,2.40
2023-01-17T14:40:22.030Z,2.67
2023-01-17T14:43:00.879Z,2.28
2023-01-17T14:45:33.879Z,2.38
2023-01-17T14:48:04.514Z,2.30
2023-01-17T14:50:42.906Z,2.10
2023-01-17T14:53:12.833Z,2.33
2023-01-17T14:55:56.786Z,2.30
2023-01-17T14:58:39.399Z,2.58
2023-01-17T15:01:18.824Z,2.53
2023-01-17T15:03:52.834Z,2.30
2023-01-17T15:06:23.918Z,2.65
2023-01-17T15:08:54.640Z,2.40
2023-01-17T15:11:31.643Z,2.83
2023-01-17T15:14:01.902Z,2.50
2023-01-17T15:16:33.419Z,2.60
2023-01-17T15:19:00.934Z,2.63
2023-01-17T15:21:35.513Z,2.47
2023-01-17T15:24:08.358Z,3.08
2023-01-17T15:26:38.986Z,3.00
2023-01-17T15:29:11.380Z,2.42
2023-01-17T15:31:44.311Z,2.58
2023-01-17T15:34:44.240Z,2.70
2023-01-17T15:37:34.321Z,2.63
2023-01-17T15:40:21.089Z,3.03
2023-01-17T15:42:58.805Z,2.70
2023-01-17T15:45:29.661Z,2.97
2023-01-17T15:47:57.942Z,2.92
2023-01-17T15:50:31.920Z,2.70
2023-01-17T15:53:01.999Z,2.40
2023-01-17T15:55:39.335Z,2.40
2023-01-17T15:58:27.281Z,2.97
2023-01-17T16:00:54.587Z,2.40
2023-01-17T16:03:29.355Z,2.45
2023-01-17T16:06:00.129Z,2.85
2023-01-17T16:08:30.704Z,2.40
2023-01-17T16:11:02.431Z,2.75
2023-01-17T16:13:31.764Z,2.40
2023-01-17T16:16:16.711Z,2.92
2023-01-17T16:18:44.828Z,4.80
2023-01-17T16:21:24.298Z,3.92
2023-01-17T16:23:51.395Z,2.87
2023-01-17T16:26:18.732Z,5.20
2023-01-17T16:28:45.909Z,2.88
2023-01-17T16:31:13.043Z,3.95
2023-01-17T16:33:42.262Z,3.20
2023-01-17T16:36:16.692Z,3.53
2023-01-17T16:38:45.415Z,3.97
2023-01-17T16:41:12.838Z,4.23
2023-01-17T16:43:39.816Z,3.50
2023-01-17T16:46:07.086Z,4.82
2023-01-17T16:48:33.954Z,7.22
2023-01-17T16:51:06.691Z,5.18
2023-01-17T16:53:34.993Z,4.07
2023-01-17T16:56:12.260Z,3.42
2023-01-17T16:58:39.803Z,4.38
2023-01-17T17:01:15.903Z,3.90
2023-01-17T17:03:46.931Z,4.18
2023-01-17T17:06:15.114Z,3.70
2023-01-17T17:08:43.129Z,3.40
2023-01-17T17:11:19.049Z,3.53
2023-01-17T17:13:48.776Z,3.60
2023-01-17T17:16:17.727Z,3.33
2023-01-17T17:18:46.946Z,3.58
2023-01-17T17:21:14.609Z,3.30
2023-01-17T17:23:41.538Z,3.30
2023-01-17T17:26:08.599Z,3.53
2023-01-17T17:28:35.801Z,3.78
2023-01-17T17:31:10.259Z,3.58
2023-01-17T17:33:38.740Z,3.55
2023-01-17T17:36:12.010Z,4.38
2023-01-17T17:38:51.222Z,3.67
2023-01-17T17:41:24.238Z,3.42
2023-01-17T17:43:52.487Z,4.18
2023-01-17T17:46:21.251Z,4.05
2023-01-17T17:48:49.028Z,3.38
2023-01-17T17:51:33.144Z,3.95
2023-01-17T17:54:02.524Z,3.60
2023-01-17T17:56:31.544Z,3.38
2023-01-17T17:58:59.728Z,3.80
2023-01-17T18:01:26.724Z,3.40
2023-01-17T18:03:56.889Z,3.40
2023-01-17T18:06:24.073Z,3.80
2023-01-17T18:08:52.344Z,3.58
2023-01-17T18:11:26.052Z,3.67
2023-01-17T18:13:55.160Z,3.65
2023-01-17T18:16:28.228Z,3.45
2023-01-17T18:18:57.001Z,3.20
2023-01-17T18:21:32.497Z,3.40
2023-01-17T18:24:03.719Z,3.78
2023-01-17T18:26:31.665Z,3.80
2023-01-17T18:28:59.870Z,3.78
2023-01-17T18:31:28.836Z,3.45
2023-01-17T18:34:00.650Z,3.63
2023-01-17T18:36:30.887Z,3.63
2023-01-17T18:38:57.883Z,3.70
2023-01-17T18:41:29.982Z,3.70
2023-01-17T18:43:57.940Z,3.72
2023-01-17T18:46:26.472Z,4.03
2023-01-17T18:48:56.747Z,3.58
2023-01-17T18:51:23.992Z,3.53
2023-01-17T18:53:52.960Z,4.07
2023-01-17T18:56:23.712Z,3.75
2023-01-17T18:58:51.316Z,4.03
2023-01-17T19:01:25.298Z,4.20
2023-01-17T19:03:54.723Z,5.03
2023-01-17T19:06:24.528Z,4.43
2023-01-17T19:08:52.064Z,4.15
2023-01-17T19:11:23.767Z,4.20
2023-01-17T19:13:52.461Z,4.40
2023-01-17T19:16:24.528Z,4.50
2023-01-17T19:18:52.899Z,4.28
2023-01-17T19:21:23.316Z,4.50
2023-01-17T19:23:50.550Z,4.38
2023-01-17T19:26:20.016Z,5.10
2023-01-17T19:28:48.819Z,5.22
2023-01-17T19:31:22.274Z,4.40
2023-01-17T19:33:51.065Z,5.05
2023-01-17T19:36:21.102Z,4.70
2023-01-17T19:39:02.970Z,4.47
2023-01-17T19:41:31.649Z,4.80
2023-01-17T19:44:01.016Z,5.10
2023-01-17T19:46:28.296Z,5.03
2023-01-17T19:48:56.680Z,5.43
2023-01-17T19:51:24.694Z,4.97
2023-01-17T19:53:53.508Z,5.20
2023-01-17T19:56:22.969Z,4.68
2023-01-17T19:58:50.039Z,5.05
2023-01-17T20:01:28.760Z,5.40
2023-01-17T20:03:58.193Z,5.25
2023-01-17T20:06:28.894Z,5.22
2023-01-17T20:08:56.626Z,5.43
2023-01-17T20:11:25.706Z,5.15
2023-01-17T20:13:54.927Z,4.55
2023-01-17T20:16:23.728Z,5.38
2023-01-17T20:18:50.862Z,5.68
2023-01-17T20:21:26.623Z,5.10
2023-01-17T20:23:55.033Z,5.30
2023-01-17T20:26:25.238Z,4.88
2023-01-17T20:28:52.187Z,5.20
2023-01-17T20:31:24.846Z,5.18
2023-01-17T20:33:54.534Z,5.53
2023-01-17T20:38:49.684Z,4.97
2023-01-17T20:41:20.667Z,4.90
2023-01-17T20:43:56.260Z,5.43
2023-01-17T20:46:25.726Z,5.35
2023-01-17T20:48:54.879Z,4.88
2023-01-17T20:51:23.679Z,5.05
2023-01-17T20:53:58.392Z,5.28
2023-01-17T20:56:26.609Z,5.28
2023-01-17T20:58:54.521Z,4.78
2023-01-17T21:01:22.636Z,5.53
2023-01-17T21:03:53.181Z,5.65
2023-01-17T21:06:22.297Z,5.72
2023-01-17T21:08:50.161Z,5.28
2023-01-17T21:11:20.880Z,5.90
2023-01-17T21:13:51.499Z,5.30
2023-01-17T21:16:22.798Z,5.15
2023-01-17T21:18:51.671Z,5.30
2023-01-17T21:21:24.129Z,5.25
2023-01-17T21:23:53.545Z,5.30
2023-01-17T21:26:22.251Z,4.80
2023-01-17T21:28:50.843Z,5.57
2023-01-17T21:31:29.531Z,6.63
2023-01-17T21:34:07.261Z,6.63
2023-01-17T21:36:37.155Z,6.25
2023-01-17T21:39:07.290Z,6.60
2023-01-17T21:41:39.495Z,19.30
2023-01-17T21:44:27.921Z,6.70
2023-01-17T21:46:56.537Z,7.10
2023-01-17T21:49:23.598Z,6.13
2023-01-17T21:51:53.226Z,6.05
2023-01-17T21:57:26.350Z,6.70
2023-01-17T21:59:53.123Z,6.50
2023-01-17T22:02:20.021Z,6.78
2023-01-17T22:04:46.949Z,7.53
2023-01-17T22:07:13.916Z,8.18
2023-01-17T22:09:40.775Z,6.80
2023-01-17T22:12:07.637Z,6.43
2023-01-17T22:14:34.436Z,6.20
2023-01-17T22:17:01.547Z,7.03
2023-01-17T22:19:28.344Z,7.00
2023-01-17T22:21:55.218Z,6.82
2023-01-17T22:24:22.268Z,7.60
2023-01-17T22:26:49.123Z,6.85
2023-01-17T22:29:18.790Z,6.40
2023-01-17T22:31:46.380Z,5.97
2023-01-17T22:34:13.951Z,5.50
2023-01-17T22:36:41.259Z,5.75
2023-01-17T22:39:09.694Z,6.78
2023-01-17T22:41:38.181Z,5.80
2023-01-17T22:44:05.524Z,6.22
2023-01-17T22:46:35.751Z,6.13
2023-01-17T22:49:02.746Z,5.80
2023-01-17T22:51:29.773Z,5.85
2023-01-17T22:53:59.400Z,6.93
2023-01-17T22:58:54.570Z,11.98
2023-01-17T23:01:30.928Z,9.10
2023-01-17T23:04:00.193Z,6.78
2023-01-17T23:06:32.598Z,5.72
2023-01-17T23:09:02.454Z,7.10
2023-01-17T23:11:40.903Z,6.65
2023-01-17T23:14:24.289Z,7.63
2023-01-17T23:17:11.090Z,7.00
2023-01-17T23:19:42.666Z,7.55
2023-01-17T23:22:16.370Z,7.13
2023-01-17T23:24:46.269Z,6.60
2023-01-17T23:27:33.090Z,6.40
2023-01-17T23:30:00.396Z,6.88
2023-01-17T23:32:27.565Z,9.45
2023-01-17T23:34:54.752Z,8.05
2023-01-17T23:37:21.604Z,7.38
2023-01-17T23:39:48.443Z,7.10
2023-01-17T23:42:34.167Z,6.53
2023-01-17T23:45:01.095Z,7.13
2023-01-17T23:47:27.914Z,7.22
2023-01-17T23:49:54.749Z,6.50
2023-01-17T23:52:21.608Z,7.05
2023-01-17T23:54:48.559Z,6.47
2023-01-17T23:57:15.433Z,6.40
2023-01-17T23:59:42.287Z,6.13
